Aviation Digital Data Service (ADDS)

Output produced by METARs form (0737 UTC 23 February 2019)
found at http://www.aviationweather.gov/metar/data/
 
LLBG 230720Z 19004KT 9999 FEW035 15/08 Q1019 NOSIG
TAF LLBG 230506Z 2306/2406 VRB03KT 9999 FEW035 
     BECMG 2308/2310 26008KT SCT040 
     BECMG 2314/2316 02005KT CAVOK 
     BECMG 2319/2321 VRB03KT TX17/2312Z TN06/2404Z
       
LLET 230650Z 03006KT CAVOK 16/07 Q1019
TAF LLET 230507Z 2306/2406 36010KT CAVOK TX23/2312Z TN12/2404Z
       
LLHA 230650Z 14005KT 9999 FEW030 14/09 Q1020
TAF LLHA 230505Z 2306/2406 14004KT 7000 FEW030 
     BECMG 2309/2311 27008KT 9999 SCT030 
     BECMG 2315/2317 36005KT CAVOK 
     BECMG 2319/2321 13005KT TX17/2312Z TN09/2404Z
       
LLIB 230650Z VRB01KT CAVOK 12/07 Q1019 RMK FEW060
TAF LLIB 230504Z 2306/2406 VRB03KT 6000 NSC 
     TEMPO 2306/2307 3500 BR 
     BECMG 2307/2309 17006KT 9999 SCT040 
     BECMG 2313/2315 33006KT CAVOK 
     BECMG 2317/2319 VRB03KT 
     PROB30 2403/2406 5000 BR TX16/2312Z TN03/2404Z
       
LLOV 230650Z VRB01KT CAVOK 13/05 Q1019
TAF LLOV 230506Z 2306/2406 24005KT CAVOK 
     BECMG 2308/2310 01008KT 
     BECMG 2315/2317 VRB04KT TX18/2312Z TN06/2404Z
       
LLSD 230650Z 15005KT 120V180 9999 FEW034 14/08 Q1019
TAF LLSD 230505Z 2306/2406 10005KT 9999 FEW025 
     BECMG 2307/2309 24008KT SCT030 
     BECMG 2311/2313 32008KT 
     BECMG 2316/2318 02006KT CAVOK 
     BECMG 2320/2322 10005KT TX17/2312Z TN09/2404Z